Maersk Bali — 9V7499 — position and weather

sailwx.info

Track history (hours):
 
Tides and Currents Weather Stations Pressure Air Temp Water Temp Dewpoint Dewpoint Depression Visibility Wind Speed Wind Dir Waves Ship Positions

Maersk Bali

Last reported at 2018-Apr-21 15:08 UTC. Time now 2018-Apr-26 00:17 UTC.
Position N 09°12' W 079°54'.

Length 223 m; draft 10 m.

Type: Ship (hazmat cat A). MMSI: 563102000.

Date/timePositionNaut miles runAvg speedWind from/ knotsBaromVisibWave heightAir tempDewpointWater temp
2018-Apr-21 15:08N 09°12' W 079°54'2 7.4
2018-Apr-21 14:51N 09°14' W 079°55'2 6.5
2018-Apr-21 14:29N 09°16' W 079°55'0 0.5
2018-Apr-21 13:55N 09°16' W 079°55'0 0.5
2018-Apr-21 13:07N 09°17' W 079°55'0 0.9
2018-Apr-21 12:53N 09°17' W 079°55'0 0.7
2018-Apr-21 12:29N 09°17' W 079°55'1 2.5
2018-Apr-21 12:00N 09°18' W 079°55'3 5.9
2018-Apr-21 11:30N 09°21' W 079°55'3 5.8
2018-Apr-21 11:00N 09°24' W 079°55'4 8.6
2018-Apr-21 10:30N 09°27' W 079°52'1 2.7
2018-Apr-21 10:00N 09°28' W 079°51'0 0.1
2018-Apr-21 04:24N 09°27' W 079°51'0 0.0
2018-Apr-21 03:54N 09°27' W 079°51'0 0.0
2018-Apr-21 03:24N 09°27' W 079°51'0 0.0
2018-Apr-21 01:57N 09°27' W 079°51'0 0.0
2018-Apr-21 01:06N 09°27' W 079°51'0 0.2
2018-Apr-21 01:00N 09°27' W 079°51'0 0.3
2018-Apr-21 00:30N 09°28' W 079°50'5 9.7
2018-Apr-21 00:00N 09°24' W 079°54'2 4.3
2018-Apr-20 23:30N 09°22' W 079°53'0 0.0
2018-Apr-20 22:59N 09°22' W 079°53'0 0.0
2018-Apr-20 22:29N 09°22' W 079°53'0 0.0
2018-Apr-20 21:59N 09°22' W 079°53'0 0.0
2018-Apr-20 21:29N 09°22' W 079°53'0 0.0
2018-Apr-20 20:59N 09°22' W 079°53'0 0.0
2018-Apr-20 20:29N 09°22' W 079°53'0 0.0
2018-Apr-20 19:59N 09°22' W 079°53'0 0.0
2018-Apr-20 19:29N 09°22' W 079°53'0 0.0
2018-Apr-20 18:59N 09°22' W 079°53'0 0.0
2018-Apr-20 18:29N 09°22' W 079°53'0 0.0
2018-Apr-20 17:59N 09°22' W 079°53'0 0.0
2018-Apr-20 17:29N 09°22' W 079°53'0 0.0
2018-Apr-20 16:59N 09°22' W 079°53'0 0.0
2018-Apr-20 16:29N 09°22' W 079°53'0 0.0
2018-Apr-20 15:59N 09°22' W 079°53'0 0.0
2018-Apr-20 15:29N 09°22' W 079°53'0 0.0
2018-Apr-20 14:59N 09°22' W 079°53'0 0.0
2018-Apr-20 14:29N 09°22' W 079°53'0 0.0
2018-Apr-20 13:59N 09°22' W 079°53'0 0.0
2018-Apr-20 13:29N 09°22' W 079°53'0 0.3
2018-Apr-20 13:00N 09°22' W 079°53'2 4.6
2018-Apr-20 12:30N 09°24' W 079°54'2 3.3
2018-Apr-20 11:58N 09°26' W 079°54'3 5.8
2018-Apr-20 11:31N 09°29' W 079°54'0 0.6
2018-Apr-20 11:01N 09°29' W 079°54'0 0.8
2018-Apr-20 10:30N 09°29' W 079°53'0 0.8
2018-Apr-20 09:59N 09°29' W 079°53'3 5.7
2018-Apr-20 09:29N 09°32' W 079°52'  
Track history (hours):
 
Tides and Currents Weather Stations Pressure Air Temp Water Temp Dewpoint Dewpoint Depression Visibility Wind Speed Wind Dir Waves Ship Positions

Maersk Bali

Last reported at 2018-Apr-21 15:08 UTC. Time now 2018-Apr-26 00:17 UTC.
Position N 09°12' W 079°54'.

Length 223 m; draft 10 m.

Type: Ship (hazmat cat A). MMSI: 563102000.

Date/timePositionNaut miles runAvg speedWind from/ knotsBaromVisibWave heightAir tempDewpointWater temp
2018-Apr-21 15:08N 09°12' W 079°54'2 7.4
2018-Apr-21 14:51N 09°14' W 079°55'2 6.5
2018-Apr-21 14:29N 09°16' W 079°55'0 0.5
2018-Apr-21 13:55N 09°16' W 079°55'0 0.5
2018-Apr-21 13:07N 09°17' W 079°55'0 0.9
2018-Apr-21 12:53N 09°17' W 079°55'0 0.7
2018-Apr-21 12:29N 09°17' W 079°55'1 2.5
2018-Apr-21 12:00N 09°18' W 079°55'3 5.9
2018-Apr-21 11:30N 09°21' W 079°55'3 5.8
2018-Apr-21 11:00N 09°24' W 079°55'4 8.6
2018-Apr-21 10:30N 09°27' W 079°52'1 2.7
2018-Apr-21 10:00N 09°28' W 079°51'0 0.1
2018-Apr-21 04:24N 09°27' W 079°51'0 0.0
2018-Apr-21 03:54N 09°27' W 079°51'0 0.0
2018-Apr-21 03:24N 09°27' W 079°51'0 0.0
2018-Apr-21 01:57N 09°27' W 079°51'0 0.0
2018-Apr-21 01:06N 09°27' W 079°51'0 0.2
2018-Apr-21 01:00N 09°27' W 079°51'0 0.3
2018-Apr-21 00:30N 09°28' W 079°50'5 9.7
2018-Apr-21 00:00N 09°24' W 079°54'2 4.3
2018-Apr-20 23:30N 09°22' W 079°53'0 0.0
2018-Apr-20 22:59N 09°22' W 079°53'0 0.0
2018-Apr-20 22:29N 09°22' W 079°53'0 0.0
2018-Apr-20 21:59N 09°22' W 079°53'0 0.0
2018-Apr-20 21:29N 09°22' W 079°53'0 0.0
2018-Apr-20 20:59N 09°22' W 079°53'0 0.0
2018-Apr-20 20:29N 09°22' W 079°53'0 0.0
2018-Apr-20 19:59N 09°22' W 079°53'0 0.0
2018-Apr-20 19:29N 09°22' W 079°53'0 0.0
2018-Apr-20 18:59N 09°22' W 079°53'0 0.0
2018-Apr-20 18:29N 09°22' W 079°53'0 0.0
2018-Apr-20 17:59N 09°22' W 079°53'0 0.0
2018-Apr-20 17:29N 09°22' W 079°53'0 0.0
2018-Apr-20 16:59N 09°22' W 079°53'0 0.0
2018-Apr-20 16:29N 09°22' W 079°53'0 0.0
2018-Apr-20 15:59N 09°22' W 079°53'0 0.0
2018-Apr-20 15:29N 09°22' W 079°53'0 0.0
2018-Apr-20 14:59N 09°22' W 079°53'0 0.0
2018-Apr-20 14:29N 09°22' W 079°53'0 0.0
2018-Apr-20 13:59N 09°22' W 079°53'0 0.0
2018-Apr-20 13:29N 09°22' W 079°53'0 0.3
2018-Apr-20 13:00N 09°22' W 079°53'2 4.6
2018-Apr-20 12:30N 09°24' W 079°54'2 3.3
2018-Apr-20 11:58N 09°26' W 079°54'3 5.8
2018-Apr-20 11:31N 09°29' W 079°54'0 0.6
2018-Apr-20 11:01N 09°29' W 079°54'0 0.8
2018-Apr-20 10:30N 09°29' W 079°53'0 0.8
2018-Apr-20 09:59N 09°29' W 079°53'3 5.7
2018-Apr-20 09:29N 09°32' W 079°52'  

Dump ship's entire track history